sensor_id;sensor_type;location;lat;lon;timestamp;pressure;altitude;pressure_sealevel;temperature;humidity
32873;BME280;19224;52.462;16.898;2023-02-14T00:01:58;102252.42;;;5.90;100.00
32873;BME280;19224;52.462;16.898;2023-02-14T00:04:28;102251.98;;;5.89;100.00
32873;BME280;19224;52.462;16.898;2023-02-14T00:06:59;102253.37;;;6.04;100.00
32873;BME280;19224;52.462;16.898;2023-02-14T00:09:29;102256.90;;;5.97;100.00
32873;BME280;19224;52.462;16.898;2023-02-14T00:12:02;102250.21;;;5.97;100.00
32873;BME280;19224;52.462;16.898;2023-02-14T00:14:33;102246.20;;;5.97;100.00
32873;BME280;19224;52.462;16.898;2023-02-14T00:17:21;102248.41;;;5.90;100.00
32873;BME280;19224;52.462;16.898;2023-02-14T00:19:51;102248.36;;;5.81;100.00
32873;BME280;19224;52.462;16.898;2023-02-14T00:22:21;102251.92;;;5.80;100.00
32873;BME280;19224;52.462;16.898;2023-02-14T00:24:52;102252.32;;;5.78;100.00
32873;BME280;19224;52.462;16.898;2023-02-14T00:27:22;102245.17;;;5.75;100.00
32873;BME280;19224;52.462;16.898;2023-02-14T00:29:53;102246.51;;;5.75;100.00
32873;BME280;19224;52.462;16.898;2023-02-14T00:32:25;102251.83;;;5.71;100.00
32873;BME280;19224;52.462;16.898;2023-02-14T00:34:56;102248.27;;;5.72;100.00
32873;BME280;19224;52.462;16.898;2023-02-14T00:37:27;102250.92;;;5.69;100.00
32873;BME280;19224;52.462;16.898;2023-02-14T00:39:57;102251.79;;;5.66;100.00
32873;BME280;19224;52.462;16.898;2023-02-14T00:42:28;102253.60;;;5.69;100.00
32873;BME280;19224;52.462;16.898;2023-02-14T00:44:59;102254.05;;;5.70;100.00
32873;BME280;19224;52.462;16.898;2023-02-14T00:47:30;102253.55;;;5.63;100.00
32873;BME280;19224;52.462;16.898;2023-02-14T00:50:00;102257.14;;;5.66;100.00
32873;BME280;19224;52.462;16.898;2023-02-14T00:52:33;102253.53;;;5.60;100.00
32873;BME280;19224;52.462;16.898;2023-02-14T00:55:04;102249.97;;;5.58;100.00
32873;BME280;19224;52.462;16.898;2023-02-14T00:57:37;102255.75;;;5.56;100.00
32873;BME280;19224;52.462;16.898;2023-02-14T01:00:08;102261.97;;;5.56;100.00
32873;BME280;19224;52.462;16.898;2023-02-14T01:02:39;102260.62;;;5.53;100.00
32873;BME280;19224;52.462;16.898;2023-02-14T01:05:09;102265.97;;;5.53;100.00
32873;BME280;19224;52.462;16.898;2023-02-14T01:07:40;102262.34;;;5.48;100.00
32873;BME280;19224;52.462;16.898;2023-02-14T01:10:11;102265.52;;;5.52;100.00
32873;BME280;19224;52.462;16.898;2023-02-14T01:12:41;102267.39;;;5.68;100.00
32873;BME280;19224;52.462;16.898;2023-02-14T01:15:11;102267.03;;;5.78;100.00
32873;BME280;19224;52.462;16.898;2023-02-14T01:17:42;102266.52;;;5.71;100.00
32873;BME280;19224;52.462;16.898;2023-02-14T01:20:12;102267.85;;;5.68;100.00
32873;BME280;19224;52.462;16.898;2023-02-14T01:22:42;102257.64;;;5.73;100.00
32873;BME280;19224;52.462;16.898;2023-02-14T01:25:13;102259.34;;;5.64;100.00
32873;BME280;19224;52.462;16.898;2023-02-14T01:27:43;102259.33;;;5.61;100.00
32873;BME280;19224;52.462;16.898;2023-02-14T01:30:14;102252.12;;;5.48;100.00
32873;BME280;19224;52.462;16.898;2023-02-14T01:32:45;102254.83;;;5.52;100.00
32873;BME280;19224;52.462;16.898;2023-02-14T01:35:15;102248.64;;;5.61;100.00
32873;BME280;19224;52.462;16.898;2023-02-14T01:37:46;102238.42;;;5.63;100.00
32873;BME280;19224;52.462;16.898;2023-02-14T01:40:17;102246.91;;;5.70;100.00
32873;BME280;19224;52.462;16.898;2023-02-14T01:42:47;102243.34;;;5.67;100.00
32873;BME280;19224;52.462;16.898;2023-02-14T01:45:23;102235.73;;;5.65;100.00
32873;BME280;19224;52.462;16.898;2023-02-14T01:47:56;102239.28;;;5.61;100.00
32873;BME280;19224;52.462;16.898;2023-02-14T01:50:33;102236.60;;;5.58;100.00
32873;BME280;19224;52.462;16.898;2023-02-14T01:53:17;102235.75;;;5.63;100.00
32873;BME280;19224;52.462;16.898;2023-02-14T01:55:47;102239.33;;;5.68;100.00
32873;BME280;19224;52.462;16.898;2023-02-14T01:58:21;102237.51;;;5.63;100.00
32873;BME280;19224;52.462;16.898;2023-02-14T02:00:52;102241.05;;;5.60;100.00
32873;BME280;19224;52.462;16.898;2023-02-14T02:03:38;102245.95;;;5.58;100.00
32873;BME280;19224;52.462;16.898;2023-02-14T02:06:24;102236.16;;;5.57;100.00
32873;BME280;19224;52.462;16.898;2023-02-14T02:09:32;102240.14;;;5.55;100.00
32873;BME280;19224;52.462;16.898;2023-02-14T02:12:04;102241.06;;;5.59;100.00
32873;BME280;19224;52.462;16.898;2023-02-14T02:14:34;102235.72;;;5.62;100.00
32873;BME280;19224;52.462;16.898;2023-02-14T02:17:46;102233.48;;;5.57;100.00
32873;BME280;19224;52.462;16.898;2023-02-14T02:20:34;102243.72;;;5.60;100.00
32873;BME280;19224;52.462;16.898;2023-02-14T02:26:58;102230.78;;;5.55;100.00
32873;BME280;19224;52.462;16.898;2023-02-14T02:33:19;102226.78;;;5.55;100.00
32873;BME280;19224;52.462;16.898;2023-02-14T02:36:10;102229.48;;;5.63;100.00
32873;BME280;19224;52.462;16.898;2023-02-14T02:39:00;102231.22;;;5.50;100.00
32873;BME280;19224;52.462;16.898;2023-02-14T02:50:33;102220.52;;;5.55;100.00
32873;BME280;19224;52.462;16.898;2023-02-14T02:56:26;102218.29;;;5.53;100.00
32873;BME280;19224;52.462;16.898;2023-02-14T02:59:33;102212.05;;;5.51;100.00
32873;BME280;19224;52.462;16.898;2023-02-14T03:02:14;102212.98;;;5.57;100.00
32873;BME280;19224;52.462;16.898;2023-02-14T03:04:54;102214.23;;;5.45;100.00
32873;BME280;19224;52.462;16.898;2023-02-14T03:07:39;102217.78;;;5.41;100.00
32873;BME280;19224;52.462;16.898;2023-02-14T03:10:29;102222.72;;;5.48;100.00
32873;BME280;19224;52.462;16.898;2023-02-14T03:19:46;102221.28;;;5.34;100.00
32873;BME280;19224;52.462;16.898;2023-02-14T03:25:44;102228.45;;;5.40;100.00
32873;BME280;19224;52.462;16.898;2023-02-14T03:28:42;102235.59;;;5.44;100.00
32873;BME280;19224;52.462;16.898;2023-02-14T03:34:26;102234.68;;;5.39;100.00
32873;BME280;19224;52.462;16.898;2023-02-14T03:37:04;102236.38;;;5.28;100.00
32873;BME280;19224;52.462;16.898;2023-02-14T03:40:14;102242.55;;;5.21;100.00
32873;BME280;19224;52.462;16.898;2023-02-14T03:42:53;102240.94;;;5.39;100.00
32873;BME280;19224;52.462;16.898;2023-02-14T03:45:26;102241.78;;;5.34;100.00
32873;BME280;19224;52.462;16.898;2023-02-14T03:47:59;102244.05;;;5.40;100.00
32873;BME280;19224;52.462;16.898;2023-02-14T03:50:31;102239.56;;;5.35;100.00
32873;BME280;19224;52.462;16.898;2023-02-14T03:53:03;102240.84;;;5.29;100.00
32873;BME280;19224;52.462;16.898;2023-02-14T03:55:57;102236.02;;;5.39;100.00
32873;BME280;19224;52.462;16.898;2023-02-14T03:58:33;102235.14;;;5.43;100.00
32873;BME280;19224;52.462;16.898;2023-02-14T04:01:13;102237.30;;;5.33;100.00
32873;BME280;19224;52.462;16.898;2023-02-14T04:03:44;102235.97;;;5.31;100.00
32873;BME280;19224;52.462;16.898;2023-02-14T04:06:19;102230.15;;;5.29;100.00
32873;BME280;19224;52.462;16.898;2023-02-14T04:08:50;102237.73;;;5.29;100.00
32873;BME280;19224;52.462;16.898;2023-02-14T04:11:20;102232.31;;;5.22;100.00
32873;BME280;19224;52.462;16.898;2023-02-14T04:13:51;102234.56;;;5.25;100.00
32873;BME280;19224;52.462;16.898;2023-02-14T04:16:21;102240.78;;;5.21;100.00
32873;BME280;19224;52.462;16.898;2023-02-14T04:18:51;102232.75;;;5.20;100.00
32873;BME280;19224;52.462;16.898;2023-02-14T04:21:40;102234.95;;;5.16;100.00
32873;BME280;19224;52.462;16.898;2023-02-14T04:24:10;102229.17;;;5.18;100.00
32873;BME280;19224;52.462;16.898;2023-02-14T04:26:40;102236.30;;;5.19;100.00
32873;BME280;19224;52.462;16.898;2023-02-14T04:29:12;102235.87;;;5.21;100.00
32873;BME280;19224;52.462;16.898;2023-02-14T04:31:43;102236.81;;;5.26;100.00
32873;BME280;19224;52.462;16.898;2023-02-14T04:34:14;102235.09;;;5.35;100.00
32873;BME280;19224;52.462;16.898;2023-02-14T04:36:44;102235.59;;;5.39;100.00
32873;BME280;19224;52.462;16.898;2023-02-14T04:39:14;102240.45;;;5.34;100.00
32873;BME280;19224;52.462;16.898;2023-02-14T04:41:45;102239.50;;;5.29;100.00
32873;BME280;19224;52.462;16.898;2023-02-14T04:44:15;102235.87;;;5.21;100.00
32873;BME280;19224;52.462;16.898;2023-02-14T04:46:45;102242.55;;;5.21;100.00
32873;BME280;19224;52.462;16.898;2023-02-14T04:49:16;102240.77;;;5.18;100.00
32873;BME280;19224;52.462;16.898;2023-02-14T04:51:47;102245.67;;;5.20;100.00
32873;BME280;19224;52.462;16.898;2023-02-14T04:54:17;102235.47;;;5.23;100.00
32873;BME280;19224;52.462;16.898;2023-02-14T04:56:48;102238.09;;;5.20;100.00
32873;BME280;19224;52.462;16.898;2023-02-14T04:59:18;102239.86;;;5.18;100.00
32873;BME280;19224;52.462;16.898;2023-02-14T05:01:49;102231.80;;;5.13;100.00
32873;BME280;19224;52.462;16.898;2023-02-14T05:04:20;102226.03;;;5.11;100.00
32873;BME280;19224;52.462;16.898;2023-02-14T05:06:50;102224.30;;;5.17;100.00
32873;BME280;19224;52.462;16.898;2023-02-14T05:09:21;102225.19;;;5.21;100.00
32873;BME280;19224;52.462;16.898;2023-02-14T05:11:51;102230.51;;;5.18;100.00
32873;BME280;19224;52.462;16.898;2023-02-14T05:14:21;102227.39;;;5.17;100.00
32873;BME280;19224;52.462;16.898;2023-02-14T05:16:52;102230.05;;;5.14;100.00
32873;BME280;19224;52.462;16.898;2023-02-14T05:19:23;102232.30;;;5.19;100.00
32873;BME280;19224;52.462;16.898;2023-02-14T05:21:53;102231.84;;;5.18;100.00
32873;BME280;19224;52.462;16.898;2023-02-14T05:24:23;102226.55;;;5.22;100.00
32873;BME280;19224;52.462;16.898;2023-02-14T05:26:54;102226.94;;;5.16;100.00
32873;BME280;19224;52.462;16.898;2023-02-14T05:29:24;102228.29;;;5.19;100.00
32873;BME280;19224;52.462;16.898;2023-02-14T05:31:55;102223.81;;;5.15;100.00
32873;BME280;19224;52.462;16.898;2023-02-14T05:34:25;102230.94;;;5.13;100.00
32873;BME280;19224;52.462;16.898;2023-02-14T05:36:55;102227.36;;;5.11;100.00
32873;BME280;19224;52.462;16.898;2023-02-14T05:39:26;102238.48;;;5.13;100.00
32873;BME280;19224;52.462;16.898;2023-02-14T05:41:56;102239.92;;;5.24;100.00
32873;BME280;19224;52.462;16.898;2023-02-14T05:44:26;102241.22;;;5.19;100.00
32873;BME280;19224;52.462;16.898;2023-02-14T05:46:57;102238.05;;;5.14;100.00
32873;BME280;19224;52.462;16.898;2023-02-14T05:49:27;102242.52;;;5.15;100.00
32873;BME280;19224;52.462;16.898;2023-02-14T05:51:57;102246.60;;;5.24;100.00
32873;BME280;19224;52.462;16.898;2023-02-14T05:54:28;102245.27;;;5.24;100.00
32873;BME280;19224;52.462;16.898;2023-02-14T05:56:58;102244.39;;;5.28;100.00
32873;BME280;19224;52.462;16.898;2023-02-14T05:59:29;102239.90;;;5.22;100.00
32873;BME280;19224;52.462;16.898;2023-02-14T06:01:59;102233.63;;;5.19;100.00
32873;BME280;19224;52.462;16.898;2023-02-14T06:04:30;102254.17;;;5.27;100.00
32873;BME280;19224;52.462;16.898;2023-02-14T06:07:00;102250.98;;;5.16;100.00
32873;BME280;19224;52.462;16.898;2023-02-14T06:09:30;102251.50;;;5.27;100.00
32873;BME280;19224;52.462;16.898;2023-02-14T06:12:01;102254.64;;;5.30;100.00
32873;BME280;19224;52.462;16.898;2023-02-14T06:14:31;102251.95;;;5.27;100.00
32873;BME280;19224;52.462;16.898;2023-02-14T06:17:01;102263.04;;;5.20;100.00
32873;BME280;19224;52.462;16.898;2023-02-14T06:19:32;102263.08;;;5.25;100.00
32873;BME280;19224;52.462;16.898;2023-02-14T06:22:02;102265.70;;;5.22;100.00
32873;BME280;19224;52.462;16.898;2023-02-14T06:24:33;102262.12;;;5.20;100.00
32873;BME280;19224;52.462;16.898;2023-02-14T06:27:03;102275.48;;;5.20;100.00
32873;BME280;19224;52.462;16.898;2023-02-14T06:29:33;102262.13;;;5.18;100.00
32873;BME280;19224;52.462;16.898;2023-02-14T06:32:04;102267.09;;;5.25;100.00
32873;BME280;19224;52.462;16.898;2023-02-14T06:34:34;102270.59;;;5.21;100.00
32873;BME280;19224;52.462;16.898;2023-02-14T06:37:05;102270.11;;;5.14;100.00
32873;BME280;19224;52.462;16.898;2023-02-14T06:39:36;102266.48;;;5.09;100.00
32873;BME280;19224;52.462;16.898;2023-02-14T06:42:06;102277.27;;;5.21;100.00
32873;BME280;19224;52.462;16.898;2023-02-14T06:44:36;102271.97;;;5.25;100.00
32873;BME280;19224;52.462;16.898;2023-02-14T06:47:07;102269.77;;;5.28;100.00
32873;BME280;19224;52.462;16.898;2023-02-14T06:49:37;102267.09;;;5.25;100.00
32873;BME280;19224;52.462;16.898;2023-02-14T06:52:09;102275.05;;;5.22;100.00
32873;BME280;19224;52.462;16.898;2023-02-14T06:54:41;102278.23;;;5.29;100.00
32873;BME280;19224;52.462;16.898;2023-02-14T06:57:11;102280.87;;;5.27;100.00
32873;BME280;19224;52.462;16.898;2023-02-14T06:59:42;102276.87;;;5.23;100.00
32873;BME280;19224;52.462;16.898;2023-02-14T07:02:31;102280.02;;;5.30;100.00
32873;BME280;19224;52.462;16.898;2023-02-14T07:05:02;102287.25;;;5.41;100.00
32873;BME280;19224;52.462;16.898;2023-02-14T07:07:32;102287.30;;;5.46;100.00
32873;BME280;19224;52.462;16.898;2023-02-14T07:10:03;102284.63;;;5.46;100.00
32873;BME280;19224;52.462;16.898;2023-02-14T07:12:33;102295.77;;;5.47;100.00
32873;BME280;19224;52.462;16.898;2023-02-14T07:15:08;102292.64;;;5.46;100.00
32873;BME280;19224;52.462;16.898;2023-02-14T07:17:55;102291.31;;;5.49;100.00
32873;BME280;19224;52.462;16.898;2023-02-14T07:20:25;102301.53;;;5.46;100.00
32873;BME280;19224;52.462;16.898;2023-02-14T07:22:56;102299.78;;;5.50;100.00
32873;BME280;19224;52.462;16.898;2023-02-14T07:25:26;102294.95;;;5.57;100.00
32873;BME280;19224;52.462;16.898;2023-02-14T07:27:56;102302.56;;;5.65;100.00
32873;BME280;19224;52.462;16.898;2023-02-14T07:30:27;102298.99;;;5.66;100.00
32873;BME280;19224;52.462;16.898;2023-02-14T07:32:57;102303.05;;;5.69;100.00
32873;BME280;19224;52.462;16.898;2023-02-14T07:35:28;102310.67;;;5.75;100.00
32873;BME280;19224;52.462;16.898;2023-02-14T07:37:58;102304.45;;;5.78;100.00
32873;BME280;19224;52.462;16.898;2023-02-14T07:40:28;102305.85;;;5.84;100.00
32873;BME280;19224;52.462;16.898;2023-02-14T07:42:59;102310.31;;;5.85;100.00
32873;BME280;19224;52.462;16.898;2023-02-14T07:45:29;102311.64;;;5.82;100.00
32873;BME280;19224;52.462;16.898;2023-02-14T07:48:00;102319.68;;;5.83;100.00
32873;BME280;19224;52.462;16.898;2023-02-14T07:50:30;102317.03;;;5.89;100.00
32873;BME280;19224;52.462;16.898;2023-02-14T07:53:00;102314.39;;;5.94;100.00
32873;BME280;19224;52.462;16.898;2023-02-14T07:55:31;102310.44;;;6.03;100.00
32873;BME280;19224;52.462;16.898;2023-02-14T07:58:01;102314.95;;;6.13;100.00
32873;BME280;19224;52.462;16.898;2023-02-14T08:00:32;102324.34;;;6.17;100.00
32873;BME280;19224;52.462;16.898;2023-02-14T08:03:03;102315.41;;;6.14;100.00
32873;BME280;19224;52.462;16.898;2023-02-14T08:05:34;102322.57;;;6.22;100.00
32873;BME280;19224;52.462;16.898;2023-02-14T08:08:05;102323.04;;;6.25;100.00
32873;BME280;19224;52.462;16.898;2023-02-14T08:10:35;102314.58;;;6.30;100.00
32873;BME280;19224;52.462;16.898;2023-02-14T08:13:06;102314.17;;;6.35;100.00
32873;BME280;19224;52.462;16.898;2023-02-14T08:15:36;102312.78;;;6.26;100.00
32873;BME280;19224;52.462;16.898;2023-02-14T08:18:24;102305.20;;;6.27;100.00
32873;BME280;19224;52.462;16.898;2023-02-14T08:20:55;102308.78;;;6.32;100.00
32873;BME280;19224;52.462;16.898;2023-02-14T08:23:26;102315.46;;;6.26;100.00
32873;BME280;19224;52.462;16.898;2023-02-14T08:25:56;102312.77;;;6.21;100.00
32873;BME280;19224;52.462;16.898;2023-02-14T08:28:27;102325.72;;;6.28;100.00
32873;BME280;19224;52.462;16.898;2023-02-14T08:31:01;102334.69;;;6.36;100.00
32873;BME280;19224;52.462;16.898;2023-02-14T08:33:32;102323.59;;;6.47;100.00
32873;BME280;19224;52.462;16.898;2023-02-14T08:36:03;102328.92;;;6.48;100.00
32873;BME280;19224;52.462;16.898;2023-02-14T08:38:33;102323.63;;;6.56;100.00
32873;BME280;19224;52.462;16.898;2023-02-14T08:41:04;102332.58;;;6.65;100.00
32873;BME280;19224;52.462;16.898;2023-02-14T08:43:34;102337.06;;;6.68;100.00
32873;BME280;19224;52.462;16.898;2023-02-14T08:46:05;102329.44;;;6.63;100.00
32873;BME280;19224;52.462;16.898;2023-02-14T08:48:35;102334.34;;;6.59;100.00
32873;BME280;19224;52.462;16.898;2023-02-14T08:51:09;102334.33;;;6.57;100.00
32873;BME280;19224;52.462;16.898;2023-02-14T08:53:41;102335.21;;;6.53;100.00
32873;BME280;19224;52.462;16.898;2023-02-14T08:56:14;102335.23;;;6.64;100.00
32873;BME280;19224;52.462;16.898;2023-02-14T08:58:50;102337.06;;;6.68;100.00
32873;BME280;19224;52.462;16.898;2023-02-14T09:01:18;102329.08;;;6.87;100.00
32873;BME280;19224;52.462;16.898;2023-02-14T09:03:48;102334.87;;;6.91;100.00
32873;BME280;19224;52.462;16.898;2023-02-14T09:06:19;102338.91;;;6.98;100.00
32873;BME280;19224;52.462;16.898;2023-02-14T09:08:49;102338.50;;;7.08;100.00
32873;BME280;19224;52.462;16.898;2023-02-14T09:11:24;102344.30;;;7.04;100.00
32873;BME280;19224;52.462;16.898;2023-02-14T09:13:55;102336.25;;;7.07;100.00
32873;BME280;19224;52.462;16.898;2023-02-14T09:16:26;102340.73;;;7.05;100.00
32873;BME280;19224;52.462;16.898;2023-02-14T09:18:57;102342.52;;;7.01;100.00
32873;BME280;19224;52.462;16.898;2023-02-14T09:21:28;102344.27;;;6.93;100.00
32873;BME280;19224;52.462;16.898;2023-02-14T09:23:58;102345.19;;;7.01;100.00
32873;BME280;19224;52.462;16.898;2023-02-14T09:26:29;102346.08;;;7.05;100.00
32873;BME280;19224;52.462;16.898;2023-02-14T09:29:00;102348.33;;;7.12;100.00
32873;BME280;19224;52.462;16.898;2023-02-14T09:31:31;102351.91;;;7.15;100.00
32873;BME280;19224;52.462;16.898;2023-02-14T09:34:03;102344.31;;;7.16;100.00
32873;BME280;19224;52.462;16.898;2023-02-14T09:36:46;102342.53;;;7.18;100.00
32873;BME280;19224;52.462;16.898;2023-02-14T09:39:23;102347.48;;;7.28;100.00
32873;BME280;19224;52.462;16.898;2023-02-14T09:42:19;102344.34;;;7.43;100.00
32873;BME280;19224;52.462;16.898;2023-02-14T09:44:51;102345.25;;;7.48;100.00
32873;BME280;19224;52.462;16.898;2023-02-14T09:47:32;102348.37;;;7.37;100.00
32873;BME280;19224;52.462;16.898;2023-02-14T09:50:00;102350.14;;;7.37;100.00
32873;BME280;19224;52.462;16.898;2023-02-14T09:52:32;102355.96;;;7.39;100.00
32873;BME280;19224;52.462;16.898;2023-02-14T09:55:05;102355.97;;;7.41;100.00
32873;BME280;19224;52.462;16.898;2023-02-14T10:00:36;102344.36;;;7.49;100.00
32873;BME280;19224;52.462;16.898;2023-02-14T10:03:51;102339.89;;;7.57;100.00
32873;BME280;19224;52.462;16.898;2023-02-14T10:06:48;102337.66;;;7.54;100.00
32873;BME280;19224;52.462;16.898;2023-02-14T10:09:49;102333.17;;;7.63;100.00
32873;BME280;19224;52.462;16.898;2023-02-14T10:12:26;102335.41;;;7.58;100.00
32873;BME280;19224;52.462;16.898;2023-02-14T10:14:59;102324.23;;;7.61;100.00
32873;BME280;19224;52.462;16.898;2023-02-14T10:17:46;102330.05;;;7.71;100.00
32873;BME280;19224;52.462;16.898;2023-02-14T10:23:02;102324.68;;;7.62;100.00
32873;BME280;19224;52.462;16.898;2023-02-14T10:25:41;102319.77;;;7.69;100.00
32873;BME280;19224;52.462;16.898;2023-02-14T10:28:13;102323.34;;;7.62;100.00
32873;BME280;19224;52.462;16.898;2023-02-14T10:30:55;102326.48;;;7.48;100.00
32873;BME280;19224;52.462;16.898;2023-02-14T10:33:26;102317.98;;;7.58;100.00
32873;BME280;19224;52.462;16.898;2023-02-14T10:36:07;102312.17;;;7.57;100.00
32873;BME280;19224;52.462;16.898;2023-02-14T10:44:35;102312.62;;;7.53;100.00
32873;BME280;19224;52.462;16.898;2023-02-14T10:50:46;102312.60;;;7.70;100.00
32873;BME280;19224;52.462;16.898;2023-02-14T10:53:37;102310.83;;;7.66;100.00
32873;BME280;19224;52.462;16.898;2023-02-14T10:56:28;102312.16;;;7.69;100.00
32873;BME280;19224;52.462;16.898;2023-02-14T10:59:07;102315.75;;;7.69;100.00
32873;BME280;19224;52.462;16.898;2023-02-14T11:01:33;102310.38;;;7.72;100.00
32873;BME280;19224;52.462;16.898;2023-02-14T11:04:05;102309.44;;;7.88;100.00
32873;BME280;19224;52.462;16.898;2023-02-14T11:06:38;102321.04;;;8.04;100.00
32873;BME280;19224;52.462;16.898;2023-02-14T11:09:12;102313.92;;;7.97;100.00
32873;BME280;19224;52.462;16.898;2023-02-14T11:11:55;102313.92;;;7.97;100.00
32873;BME280;19224;52.462;16.898;2023-02-14T11:14:33;102311.25;;;7.92;100.00
32873;BME280;19224;52.462;16.898;2023-02-14T11:17:30;102301.83;;;8.04;100.00
32873;BME280;19224;52.462;16.898;2023-02-14T11:22:56;102296.02;;;8.03;100.00
32873;BME280;19224;52.462;16.898;2023-02-14T11:25:30;102292.00;;;7.99;100.00
32873;BME280;19224;52.462;16.898;2023-02-14T11:28:06;102296.00;;;8.06;100.00
32873;BME280;19224;52.462;16.898;2023-02-14T11:30:41;102296.90;;;8.11;100.00
32873;BME280;19224;52.462;16.898;2023-02-14T11:33:36;102283.02;;;8.13;100.00
32873;BME280;19224;52.462;16.898;2023-02-14T11:36:13;102280.79;;;8.10;100.00
32873;BME280;19224;52.462;16.898;2023-02-14T11:39:32;102287.91;;;8.27;100.00
32873;BME280;19224;52.462;16.898;2023-02-14T11:41:23;102287.45;;;8.29;100.00
32873;BME280;19224;52.462;16.898;2023-02-14T11:44:12;102285.25;;;8.24;100.00
32873;BME280;19224;52.462;16.898;2023-02-14T11:46:28;102284.84;;;8.02;99.94
32873;BME280;19224;52.462;16.898;2023-02-14T11:49:05;102288.88;;;7.93;100.00
32873;BME280;19224;52.462;16.898;2023-02-14T11:51:42;102288.89;;;7.95;100.00
32873;BME280;19224;52.462;16.898;2023-02-14T11:54:29;102278.53;;;8.09;100.00
32873;BME280;19224;52.462;16.898;2023-02-14T11:59:58;102272.22;;;8.37;99.86
32873;BME280;19224;52.462;16.898;2023-02-14T12:05:31;102270.81;;;8.48;98.28
32873;BME280;19224;52.462;16.898;2023-02-14T12:08:07;102267.73;;;8.39;97.69
32873;BME280;19224;52.462;16.898;2023-02-14T12:10:40;102275.32;;;8.41;98.36
32873;BME280;19224;52.462;16.898;2023-02-14T12:15:51;102259.29;;;8.26;98.81
32873;BME280;19224;52.462;16.898;2023-02-14T12:18:45;102263.77;;;8.21;100.00
32873;BME280;19224;52.462;16.898;2023-02-14T12:21:57;102257.08;;;8.20;99.33
32873;BME280;19224;52.462;16.898;2023-02-14T12:24:53;102257.51;;;8.18;100.00
32873;BME280;19224;52.462;16.898;2023-02-14T12:27:49;102257.05;;;8.21;99.55
32873;BME280;19224;52.462;16.898;2023-02-14T12:30:23;102267.81;;;8.12;99.83
32873;BME280;19224;52.462;16.898;2023-02-14T12:32:56;102253.97;;;8.05;100.00
32873;BME280;19224;52.462;16.898;2023-02-14T12:38:40;102251.75;;;7.99;99.68
32873;BME280;19224;52.462;16.898;2023-02-14T12:42:43;102256.23;;;7.95;100.00
32873;BME280;19224;52.462;16.898;2023-02-14T12:47:24;102247.66;;;8.14;100.00
32873;BME280;19224;52.462;16.898;2023-02-14T13:02:03;102236.70;;;8.63;97.56
32873;BME280;19224;52.462;16.898;2023-02-14T13:04:47;102231.80;;;8.61;97.82
32873;BME280;19224;52.462;16.898;2023-02-14T13:10:43;102236.83;;;8.45;95.51
32873;BME280;19224;52.462;16.898;2023-02-14T13:13:46;102227.44;;;8.45;96.71
32873;BME280;19224;52.462;16.898;2023-02-14T13:16:26;102232.34;;;8.47;96.29
32873;BME280;19224;52.462;16.898;2023-02-14T13:19:26;102231.88;;;8.49;96.38
32873;BME280;19224;52.462;16.898;2023-02-14T13:21:44;102229.14;;;8.55;96.82
32873;BME280;19224;52.462;16.898;2023-02-14T13:24:25;102228.11;;;8.79;95.62
32873;BME280;19224;52.462;16.898;2023-02-14T13:27:00;102226.67;;;8.91;95.28
32873;BME280;19224;52.462;16.898;2023-02-14T13:29:49;102226.55;;;9.07;93.67
32873;BME280;19224;52.462;16.898;2023-02-14T13:32:19;102228.73;;;9.17;93.93
32873;BME280;19224;52.462;16.898;2023-02-14T13:34:50;102215.06;;;9.39;92.40
32873;BME280;19224;52.462;16.898;2023-02-14T13:37:23;102221.67;;;9.51;92.40
32873;BME280;19224;52.462;16.898;2023-02-14T13:40:05;102220.20;;;9.63;90.39
32873;BME280;19224;52.462;16.898;2023-02-14T13:42:54;102214.77;;;9.67;90.23
32873;BME280;19224;52.462;16.898;2023-02-14T13:48:14;102220.75;;;9.95;89.63
32873;BME280;19224;52.462;16.898;2023-02-14T13:51:11;102222.41;;;10.08;88.41
32873;BME280;19224;52.462;16.898;2023-02-14T13:53:45;102218.47;;;10.02;87.78
32873;BME280;19224;52.462;16.898;2023-02-14T13:59:00;102221.80;;;9.38;91.07
32873;BME280;19224;52.462;16.898;2023-02-14T14:01:44;102217.32;;;9.37;91.78
32873;BME280;19224;52.462;16.898;2023-02-14T14:04:34;102230.48;;;9.22;92.60
32873;BME280;19224;52.462;16.898;2023-02-14T14:07:15;102224.56;;;9.30;93.23
32873;BME280;19224;52.462;16.898;2023-02-14T14:09:52;102226.45;;;9.65;92.49
32873;BME280;19224;52.462;16.898;2023-02-14T14:12:35;102212.29;;;9.88;91.22
32873;BME280;19224;52.462;16.898;2023-02-14T14:15:11;102208.95;;;10.08;89.53
32873;BME280;19224;52.462;16.898;2023-02-14T14:20:47;102209.70;;;10.19;88.01
32873;BME280;19224;52.462;16.898;2023-02-14T14:23:34;102208.63;;;9.95;88.24
32873;BME280;19224;52.462;16.898;2023-02-14T14:26:35;102211.64;;;9.68;87.98
32873;BME280;19224;52.462;16.898;2023-02-14T14:31:50;102210.08;;;9.46;90.31
32873;BME280;19224;52.462;16.898;2023-02-14T14:34:26;102203.88;;;9.40;90.86
32873;BME280;19224;52.462;16.898;2023-02-14T14:37:06;102213.48;;;9.19;91.35
32873;BME280;19224;52.462;16.898;2023-02-14T14:39:37;102205.92;;;9.09;92.79
32873;BME280;19224;52.462;16.898;2023-02-14T14:42:14;102204.58;;;9.11;92.47
32873;BME280;19224;52.462;16.898;2023-02-14T14:44:56;102206.39;;;9.07;92.68
32873;BME280;19224;52.462;16.898;2023-02-14T14:47:41;102202.42;;;9.01;92.82
32873;BME280;19224;52.462;16.898;2023-02-14T14:53:00;102205.24;;;8.85;93.42
32873;BME280;19224;52.462;16.898;2023-02-14T14:55:36;102207.58;;;8.70;93.64
32873;BME280;19224;52.462;16.898;2023-02-14T14:58:34;102205.33;;;8.73;94.10